sensor_id;sensor_type;location;lat;lon;timestamp;temperature;humidity
3842;DHT22;1936;47.074;15.336;2023-06-26T00:01:00;16.70;91.10
3842;DHT22;1936;47.074;15.336;2023-06-26T00:03:04;16.70;91.00
3842;DHT22;1936;47.074;15.336;2023-06-26T00:05:08;16.70;91.00
3842;DHT22;1936;47.074;15.336;2023-06-26T00:07:11;16.60;91.10
3842;DHT22;1936;47.074;15.336;2023-06-26T00:09:14;16.40;91.30
3842;DHT22;1936;47.074;15.336;2023-06-26T00:11:18;16.50;91.40
3842;DHT22;1936;47.074;15.336;2023-06-26T00:13:22;16.50;91.30
3842;DHT22;1936;47.074;15.336;2023-06-26T00:15:27;16.40;91.30
3842;DHT22;1936;47.074;15.336;2023-06-26T00:17:33;16.40;91.50
3842;DHT22;1936;47.074;15.336;2023-06-26T00:19:39;16.30;91.50
3842;DHT22;1936;47.074;15.336;2023-06-26T00:21:42;16.30;91.70
3842;DHT22;1936;47.074;15.336;2023-06-26T00:23:49;16.30;91.90
3842;DHT22;1936;47.074;15.336;2023-06-26T00:25:53;16.30;91.80
3842;DHT22;1936;47.074;15.336;2023-06-26T00:27:56;16.30;91.90
3842;DHT22;1936;47.074;15.336;2023-06-26T00:29:59;16.30;92.10
3842;DHT22;1936;47.074;15.336;2023-06-26T00:32:04;16.40;91.80
3842;DHT22;1936;47.074;15.336;2023-06-26T00:34:08;16.40;91.60
3842;DHT22;1936;47.074;15.336;2023-06-26T00:36:11;16.40;91.80
3842;DHT22;1936;47.074;15.336;2023-06-26T00:38:14;16.40;91.40
3842;DHT22;1936;47.074;15.336;2023-06-26T00:40:18;16.40;91.50
3842;DHT22;1936;47.074;15.336;2023-06-26T00:42:22;16.40;91.50
3842;DHT22;1936;47.074;15.336;2023-06-26T00:44:25;16.40;91.40
3842;DHT22;1936;47.074;15.336;2023-06-26T00:46:28;16.40;91.20
3842;DHT22;1936;47.074;15.336;2023-06-26T00:48:33;16.40;91.30
3842;DHT22;1936;47.074;15.336;2023-06-26T00:50:37;16.40;91.10
3842;DHT22;1936;47.074;15.336;2023-06-26T00:52:40;16.40;91.10
3842;DHT22;1936;47.074;15.336;2023-06-26T00:54:44;16.30;91.10
3842;DHT22;1936;47.074;15.336;2023-06-26T00:56:48;16.30;91.00
3842;DHT22;1936;47.074;15.336;2023-06-26T00:58:51;16.20;91.10
3842;DHT22;1936;47.074;15.336;2023-06-26T01:00:54;16.20;91.10
3842;DHT22;1936;47.074;15.336;2023-06-26T01:02:58;16.30;90.90
3842;DHT22;1936;47.074;15.336;2023-06-26T01:05:04;16.20;91.10
3842;DHT22;1936;47.074;15.336;2023-06-26T01:07:08;16.10;91.10
3842;DHT22;1936;47.074;15.336;2023-06-26T01:09:11;16.10;91.50
3842;DHT22;1936;47.074;15.336;2023-06-26T01:11:15;15.90;91.60
3842;DHT22;1936;47.074;15.336;2023-06-26T01:13:19;16.00;91.50
3842;DHT22;1936;47.074;15.336;2023-06-26T01:15:22;16.00;91.40
3842;DHT22;1936;47.074;15.336;2023-06-26T01:17:27;15.90;91.60
3842;DHT22;1936;47.074;15.336;2023-06-26T01:19:33;16.00;91.40
3842;DHT22;1936;47.074;15.336;2023-06-26T01:21:42;16.10;91.50
3842;DHT22;1936;47.074;15.336;2023-06-26T01:23:56;16.00;91.60
3842;DHT22;1936;47.074;15.336;2023-06-26T01:26:17;16.00;91.70
3842;DHT22;1936;47.074;15.336;2023-06-26T01:28:22;16.10;91.50
3842;DHT22;1936;47.074;15.336;2023-06-26T01:30:28;16.00;91.80
3842;DHT22;1936;47.074;15.336;2023-06-26T01:32:32;16.10;91.80
3842;DHT22;1936;47.074;15.336;2023-06-26T01:34:36;16.30;91.60
3842;DHT22;1936;47.074;15.336;2023-06-26T01:36:39;16.30;91.60
3842;DHT22;1936;47.074;15.336;2023-06-26T01:38:43;16.30;91.30
3842;DHT22;1936;47.074;15.336;2023-06-26T01:40:46;16.40;91.40
3842;DHT22;1936;47.074;15.336;2023-06-26T01:42:51;16.40;91.30
3842;DHT22;1936;47.074;15.336;2023-06-26T01:44:55;16.40;91.60
3842;DHT22;1936;47.074;15.336;2023-06-26T01:47:01;16.50;91.10
3842;DHT22;1936;47.074;15.336;2023-06-26T01:49:12;16.50;90.90
3842;DHT22;1936;47.074;15.336;2023-06-26T01:51:17;16.50;90.80
3842;DHT22;1936;47.074;15.336;2023-06-26T01:53:24;16.50;90.80
3842;DHT22;1936;47.074;15.336;2023-06-26T01:55:35;16.50;91.10
3842;DHT22;1936;47.074;15.336;2023-06-26T01:57:42;16.60;90.80
3842;DHT22;1936;47.074;15.336;2023-06-26T01:59:51;16.60;91.20
3842;DHT22;1936;47.074;15.336;2023-06-26T02:01:55;16.60;91.10
3842;DHT22;1936;47.074;15.336;2023-06-26T02:03:58;16.60;91.30
3842;DHT22;1936;47.074;15.336;2023-06-26T02:06:01;16.70;91.00
3842;DHT22;1936;47.074;15.336;2023-06-26T02:08:05;16.80;90.80
3842;DHT22;1936;47.074;15.336;2023-06-26T02:10:09;16.90;90.30
3842;DHT22;1936;47.074;15.336;2023-06-26T02:12:13;16.80;90.30
3842;DHT22;1936;47.074;15.336;2023-06-26T02:14:16;16.80;90.20
3842;DHT22;1936;47.074;15.336;2023-06-26T02:16:21;16.80;90.20
3842;DHT22;1936;47.074;15.336;2023-06-26T02:18:25;16.90;90.30
3842;DHT22;1936;47.074;15.336;2023-06-26T02:20:28;16.90;90.50
3842;DHT22;1936;47.074;15.336;2023-06-26T02:22:31;16.80;90.50
3842;DHT22;1936;47.074;15.336;2023-06-26T02:24:34;17.00;90.00
3842;DHT22;1936;47.074;15.336;2023-06-26T02:26:38;17.00;89.80
3842;DHT22;1936;47.074;15.336;2023-06-26T02:28:41;17.00;89.50
3842;DHT22;1936;47.074;15.336;2023-06-26T02:30:44;17.00;90.50
3842;DHT22;1936;47.074;15.336;2023-06-26T02:32:49;17.10;89.80
3842;DHT22;1936;47.074;15.336;2023-06-26T02:34:52;17.10;89.00
3842;DHT22;1936;47.074;15.336;2023-06-26T02:36:55;17.00;89.20
3842;DHT22;1936;47.074;15.336;2023-06-26T02:39:00;17.00;89.70
3842;DHT22;1936;47.074;15.336;2023-06-26T02:41:03;17.00;89.00
3842;DHT22;1936;47.074;15.336;2023-06-26T02:43:06;17.00;88.80
3842;DHT22;1936;47.074;15.336;2023-06-26T02:45:10;17.00;88.50
3842;DHT22;1936;47.074;15.336;2023-06-26T02:47:13;17.00;89.20
3842;DHT22;1936;47.074;15.336;2023-06-26T02:49:18;17.00;88.90
3842;DHT22;1936;47.074;15.336;2023-06-26T02:51:24;17.10;88.50
3842;DHT22;1936;47.074;15.336;2023-06-26T02:53:27;17.00;88.60
3842;DHT22;1936;47.074;15.336;2023-06-26T02:55:30;17.00;88.40
3842;DHT22;1936;47.074;15.336;2023-06-26T02:57:34;17.00;88.20
3842;DHT22;1936;47.074;15.336;2023-06-26T02:59:37;17.10;88.10
3842;DHT22;1936;47.074;15.336;2023-06-26T03:01:41;17.10;88.10
3842;DHT22;1936;47.074;15.336;2023-06-26T03:03:44;17.20;87.50
3842;DHT22;1936;47.074;15.336;2023-06-26T03:05:50;17.00;88.10
3842;DHT22;1936;47.074;15.336;2023-06-26T03:07:53;17.00;87.90
3842;DHT22;1936;47.074;15.336;2023-06-26T03:09:57;17.10;88.80
3842;DHT22;1936;47.074;15.336;2023-06-26T03:12:01;17.00;88.30
3842;DHT22;1936;47.074;15.336;2023-06-26T03:14:04;17.00;88.40
3842;DHT22;1936;47.074;15.336;2023-06-26T03:16:07;17.00;88.30
3842;DHT22;1936;47.074;15.336;2023-06-26T03:18:11;17.00;88.60
3842;DHT22;1936;47.074;15.336;2023-06-26T03:20:14;17.00;89.20
3842;DHT22;1936;47.074;15.336;2023-06-26T03:22:19;17.10;88.60
3842;DHT22;1936;47.074;15.336;2023-06-26T03:24:22;17.10;88.70
3842;DHT22;1936;47.074;15.336;2023-06-26T03:26:25;17.10;88.50
3842;DHT22;1936;47.074;15.336;2023-06-26T03:28:29;17.10;88.30
3842;DHT22;1936;47.074;15.336;2023-06-26T03:30:34;17.10;89.20
3842;DHT22;1936;47.074;15.336;2023-06-26T03:32:38;17.20;88.40
3842;DHT22;1936;47.074;15.336;2023-06-26T03:34:42;17.30;87.70
3842;DHT22;1936;47.074;15.336;2023-06-26T03:36:45;17.30;87.20
3842;DHT22;1936;47.074;15.336;2023-06-26T03:38:53;17.20;87.30
3842;DHT22;1936;47.074;15.336;2023-06-26T03:40:58;17.40;86.40
3842;DHT22;1936;47.074;15.336;2023-06-26T03:43:02;17.50;86.20
3842;DHT22;1936;47.074;15.336;2023-06-26T03:45:06;17.20;87.20
3842;DHT22;1936;47.074;15.336;2023-06-26T03:47:09;17.30;87.20
3842;DHT22;1936;47.074;15.336;2023-06-26T03:49:12;17.30;87.30
3842;DHT22;1936;47.074;15.336;2023-06-26T03:51:16;17.40;86.70
3842;DHT22;1936;47.074;15.336;2023-06-26T03:53:19;17.40;85.90
3842;DHT22;1936;47.074;15.336;2023-06-26T03:55:24;17.50;85.50
3842;DHT22;1936;47.074;15.336;2023-06-26T03:57:27;17.50;86.10
3842;DHT22;1936;47.074;15.336;2023-06-26T03:59:30;17.30;86.30
3842;DHT22;1936;47.074;15.336;2023-06-26T04:01:33;17.40;86.60
3842;DHT22;1936;47.074;15.336;2023-06-26T04:03:38;17.40;85.90
3842;DHT22;1936;47.074;15.336;2023-06-26T04:05:42;17.40;86.60
3842;DHT22;1936;47.074;15.336;2023-06-26T04:07:45;17.50;85.80
3842;DHT22;1936;47.074;15.336;2023-06-26T04:09:52;17.50;86.10
3842;DHT22;1936;47.074;15.336;2023-06-26T04:11:56;17.50;86.70
3842;DHT22;1936;47.074;15.336;2023-06-26T04:13:59;17.60;86.00
3842;DHT22;1936;47.074;15.336;2023-06-26T04:16:03;17.60;86.70
3842;DHT22;1936;47.074;15.336;2023-06-26T04:18:08;17.80;85.60
3842;DHT22;1936;47.074;15.336;2023-06-26T04:20:11;17.80;86.70
3842;DHT22;1936;47.074;15.336;2023-06-26T04:22:15;17.80;85.50
3842;DHT22;1936;47.074;15.336;2023-06-26T04:24:18;18.00;85.20
3842;DHT22;1936;47.074;15.336;2023-06-26T04:26:21;18.00;86.00
3842;DHT22;1936;47.074;15.336;2023-06-26T04:28:26;17.90;85.90
3842;DHT22;1936;47.074;15.336;2023-06-26T04:30:29;17.90;85.50
3842;DHT22;1936;47.074;15.336;2023-06-26T04:32:33;17.90;86.60
3842;DHT22;1936;47.074;15.336;2023-06-26T04:34:36;17.90;85.90
3842;DHT22;1936;47.074;15.336;2023-06-26T04:36:43;18.00;86.60
3842;DHT22;1936;47.074;15.336;2023-06-26T04:38:48;18.10;85.20
3842;DHT22;1936;47.074;15.336;2023-06-26T04:40:51;18.00;85.80
3842;DHT22;1936;47.074;15.336;2023-06-26T04:42:54;18.20;85.90
3842;DHT22;1936;47.074;15.336;2023-06-26T04:44:59;18.30;84.80
3842;DHT22;1936;47.074;15.336;2023-06-26T04:47:04;18.30;83.70
3842;DHT22;1936;47.074;15.336;2023-06-26T04:49:07;18.30;83.60
3842;DHT22;1936;47.074;15.336;2023-06-26T04:51:11;18.40;82.40
3842;DHT22;1936;47.074;15.336;2023-06-26T04:53:14;18.40;82.30
3842;DHT22;1936;47.074;15.336;2023-06-26T04:55:18;18.50;83.10
3842;DHT22;1936;47.074;15.336;2023-06-26T04:57:22;18.60;83.10
3842;DHT22;1936;47.074;15.336;2023-06-26T04:59:25;18.80;82.00
3842;DHT22;1936;47.074;15.336;2023-06-26T05:01:34;18.90;80.10
3842;DHT22;1936;47.074;15.336;2023-06-26T05:03:41;18.90;80.10
3842;DHT22;1936;47.074;15.336;2023-06-26T05:05:45;18.90;80.80
3842;DHT22;1936;47.074;15.336;2023-06-26T05:07:48;18.80;80.20
3842;DHT22;1936;47.074;15.336;2023-06-26T05:09:52;18.90;80.20
3842;DHT22;1936;47.074;15.336;2023-06-26T05:11:55;18.90;79.10
3842;DHT22;1936;47.074;15.336;2023-06-26T05:13:58;19.00;80.50
3842;DHT22;1936;47.074;15.336;2023-06-26T05:16:02;19.10;79.90
3842;DHT22;1936;47.074;15.336;2023-06-26T05:18:07;19.10;79.90
3842;DHT22;1936;47.074;15.336;2023-06-26T05:20:10;19.10;79.70
3842;DHT22;1936;47.074;15.336;2023-06-26T05:22:14;19.20;80.50
3842;DHT22;1936;47.074;15.336;2023-06-26T05:24:19;19.50;79.40
3842;DHT22;1936;47.074;15.336;2023-06-26T05:26:26;19.70;77.70
3842;DHT22;1936;47.074;15.336;2023-06-26T05:28:30;19.70;77.50
3842;DHT22;1936;47.074;15.336;2023-06-26T05:30:34;19.80;77.70
3842;DHT22;1936;47.074;15.336;2023-06-26T05:32:40;19.80;76.20
3842;DHT22;1936;47.074;15.336;2023-06-26T05:34:47;19.80;76.60
3842;DHT22;1936;47.074;15.336;2023-06-26T05:36:51;19.90;76.50
3842;DHT22;1936;47.074;15.336;2023-06-26T05:38:55;20.00;76.00
3842;DHT22;1936;47.074;15.336;2023-06-26T05:41:01;20.10;77.10
3842;DHT22;1936;47.074;15.336;2023-06-26T05:43:05;20.20;77.20
3842;DHT22;1936;47.074;15.336;2023-06-26T05:45:10;20.30;77.10
3842;DHT22;1936;47.074;15.336;2023-06-26T05:47:13;20.50;74.60
3842;DHT22;1936;47.074;15.336;2023-06-26T05:49:17;20.50;75.30
3842;DHT22;1936;47.074;15.336;2023-06-26T05:51:22;20.60;74.80
3842;DHT22;1936;47.074;15.336;2023-06-26T05:53:26;20.60;75.90
3842;DHT22;1936;47.074;15.336;2023-06-26T05:55:30;20.70;75.10
3842;DHT22;1936;47.074;15.336;2023-06-26T05:57:34;20.80;73.80
3842;DHT22;1936;47.074;15.336;2023-06-26T05:59:40;20.90;75.10
3842;DHT22;1936;47.074;15.336;2023-06-26T06:01:43;21.10;72.40
3842;DHT22;1936;47.074;15.336;2023-06-26T06:03:47;21.20;72.60
3842;DHT22;1936;47.074;15.336;2023-06-26T06:05:51;21.60;73.30
3842;DHT22;1936;47.074;15.336;2023-06-26T06:07:56;21.70;72.10
3842;DHT22;1936;47.074;15.336;2023-06-26T06:09:59;21.80;70.10
3842;DHT22;1936;47.074;15.336;2023-06-26T06:12:03;22.20;71.10
3842;DHT22;1936;47.074;15.336;2023-06-26T06:14:07;22.50;71.90
3842;DHT22;1936;47.074;15.336;2023-06-26T06:16:11;22.70;73.00
3842;DHT22;1936;47.074;15.336;2023-06-26T06:18:18;23.00;70.60
3842;DHT22;1936;47.074;15.336;2023-06-26T06:20:22;23.30;70.00
3842;DHT22;1936;47.074;15.336;2023-06-26T06:22:25;23.30;65.60
3842;DHT22;1936;47.074;15.336;2023-06-26T06:24:30;23.60;66.90
3842;DHT22;1936;47.074;15.336;2023-06-26T06:26:34;24.00;65.30
3842;DHT22;1936;47.074;15.336;2023-06-26T06:28:39;24.00;60.90
3842;DHT22;1936;47.074;15.336;2023-06-26T06:30:45;24.30;64.00
3842;DHT22;1936;47.074;15.336;2023-06-26T06:32:50;24.90;63.40
3842;DHT22;1936;47.074;15.336;2023-06-26T06:34:54;24.90;61.80
3842;DHT22;1936;47.074;15.336;2023-06-26T06:36:58;25.10;61.80
3842;DHT22;1936;47.074;15.336;2023-06-26T06:39:02;25.40;61.20
3842;DHT22;1936;47.074;15.336;2023-06-26T06:41:07;25.80;60.30
3842;DHT22;1936;47.074;15.336;2023-06-26T06:43:11;25.90;59.60
3842;DHT22;1936;47.074;15.336;2023-06-26T06:45:15;26.20;57.40
3842;DHT22;1936;47.074;15.336;2023-06-26T06:47:18;26.30;57.80
3842;DHT22;1936;47.074;15.336;2023-06-26T06:49:22;26.50;59.60
3842;DHT22;1936;47.074;15.336;2023-06-26T06:51:25;26.60;60.20
3842;DHT22;1936;47.074;15.336;2023-06-26T06:53:28;26.50;57.10
3842;DHT22;1936;47.074;15.336;2023-06-26T06:55:32;26.80;56.90
3842;DHT22;1936;47.074;15.336;2023-06-26T06:57:38;26.80;58.60
3842;DHT22;1936;47.074;15.336;2023-06-26T06:59:41;27.60;54.60
3842;DHT22;1936;47.074;15.336;2023-06-26T07:01:45;27.80;53.70
3842;DHT22;1936;47.074;15.336;2023-06-26T07:03:48;28.20;57.50
3842;DHT22;1936;47.074;15.336;2023-06-26T07:05:52;28.60;50.70
3842;DHT22;1936;47.074;15.336;2023-06-26T07:07:55;28.50;50.00
3842;DHT22;1936;47.074;15.336;2023-06-26T07:10:04;27.90;50.90
3842;DHT22;1936;47.074;15.336;2023-06-26T07:12:09;28.10;49.70
3842;DHT22;1936;47.074;15.336;2023-06-26T07:14:14;27.40;49.90
3842;DHT22;1936;47.074;15.336;2023-06-26T07:16:17;27.20;50.20
3842;DHT22;1936;47.074;15.336;2023-06-26T07:18:21;27.00;49.10
3842;DHT22;1936;47.074;15.336;2023-06-26T07:20:25;27.30;48.30
3842;DHT22;1936;47.074;15.336;2023-06-26T07:22:29;27.10;51.50
3842;DHT22;1936;47.074;15.336;2023-06-26T07:24:32;27.40;50.90
3842;DHT22;1936;47.074;15.336;2023-06-26T07:26:36;27.80;53.20
3842;DHT22;1936;47.074;15.336;2023-06-26T07:28:47;27.90;46.90
3842;DHT22;1936;47.074;15.336;2023-06-26T07:30:53;27.60;46.60
3842;DHT22;1936;47.074;15.336;2023-06-26T07:32:57;27.70;51.00
3842;DHT22;1936;47.074;15.336;2023-06-26T07:35:00;28.50;56.10
3842;DHT22;1936;47.074;15.336;2023-06-26T07:37:04;28.50;50.40
3842;DHT22;1936;47.074;15.336;2023-06-26T07:39:07;28.30;51.80
3842;DHT22;1936;47.074;15.336;2023-06-26T07:41:16;27.90;54.90
3842;DHT22;1936;47.074;15.336;2023-06-26T07:43:19;28.40;50.80
3842;DHT22;1936;47.074;15.336;2023-06-26T07:45:23;29.10;53.60
3842;DHT22;1936;47.074;15.336;2023-06-26T07:47:29;29.40;48.60
3842;DHT22;1936;47.074;15.336;2023-06-26T07:49:33;29.50;47.80
3842;DHT22;1936;47.074;15.336;2023-06-26T07:51:36;29.60;46.50
3842;DHT22;1936;47.074;15.336;2023-06-26T07:53:39;29.60;48.50
3842;DHT22;1936;47.074;15.336;2023-06-26T07:55:43;30.20;46.10
3842;DHT22;1936;47.074;15.336;2023-06-26T07:57:46;30.10;44.50
3842;DHT22;1936;47.074;15.336;2023-06-26T07:59:50;30.50;47.80
3842;DHT22;1936;47.074;15.336;2023-06-26T08:01:54;30.40;42.90
3842;DHT22;1936;47.074;15.336;2023-06-26T08:04:01;30.40;45.50
3842;DHT22;1936;47.074;15.336;2023-06-26T08:06:05;30.30;42.70
3842;DHT22;1936;47.074;15.336;2023-06-26T08:08:12;30.50;45.00
3842;DHT22;1936;47.074;15.336;2023-06-26T08:10:16;30.60;43.80
3842;DHT22;1936;47.074;15.336;2023-06-26T08:12:19;31.70;47.40
3842;DHT22;1936;47.074;15.336;2023-06-26T08:14:23;32.40;44.40
3842;DHT22;1936;47.074;15.336;2023-06-26T08:16:26;33.10;45.70
3842;DHT22;1936;47.074;15.336;2023-06-26T08:18:29;32.50;39.80
3842;DHT22;1936;47.074;15.336;2023-06-26T08:20:34;32.10;41.50
3842;DHT22;1936;47.074;15.336;2023-06-26T08:22:39;33.20;39.30
3842;DHT22;1936;47.074;15.336;2023-06-26T08:24:43;34.40;41.30
3842;DHT22;1936;47.074;15.336;2023-06-26T08:26:47;35.10;38.60
3842;DHT22;1936;47.074;15.336;2023-06-26T08:28:50;35.90;39.60
3842;DHT22;1936;47.074;15.336;2023-06-26T08:30:54;36.70;35.80
3842;DHT22;1936;47.074;15.336;2023-06-26T08:32:57;37.20;33.90
3842;DHT22;1936;47.074;15.336;2023-06-26T08:35:01;37.60;31.90
3842;DHT22;1936;47.074;15.336;2023-06-26T08:37:06;36.20;33.40
3842;DHT22;1936;47.074;15.336;2023-06-26T08:39:11;37.00;34.40
3842;DHT22;1936;47.074;15.336;2023-06-26T08:41:14;37.60;32.60
3842;DHT22;1936;47.074;15.336;2023-06-26T08:43:18;36.40;30.00
3842;DHT22;1936;47.074;15.336;2023-06-26T08:45:21;36.50;36.00
3842;DHT22;1936;47.074;15.336;2023-06-26T08:47:25;36.10;32.90
3842;DHT22;1936;47.074;15.336;2023-06-26T08:49:33;37.20;30.90
3842;DHT22;1936;47.074;15.336;2023-06-26T08:51:41;36.80;29.70
3842;DHT22;1936;47.074;15.336;2023-06-26T08:53:52;37.40;32.90
3842;DHT22;1936;47.074;15.336;2023-06-26T08:55:59;38.00;33.10
3842;DHT22;1936;47.074;15.336;2023-06-26T08:58:03;38.80;30.50
3842;DHT22;1936;47.074;15.336;2023-06-26T09:00:08;39.00;31.80
3842;DHT22;1936;47.074;15.336;2023-06-26T09:02:12;39.80;33.80
3842;DHT22;1936;47.074;15.336;2023-06-26T09:04:16;39.20;29.50
3842;DHT22;1936;47.074;15.336;2023-06-26T09:06:19;38.50;29.70
3842;DHT22;1936;47.074;15.336;2023-06-26T09:08:23;38.50;31.00
3842;DHT22;1936;47.074;15.336;2023-06-26T09:10:28;38.80;32.70
3842;DHT22;1936;47.074;15.336;2023-06-26T09:12:31;38.80;28.80
3842;DHT22;1936;47.074;15.336;2023-06-26T09:14:37;39.10;31.90
3842;DHT22;1936;47.074;15.336;2023-06-26T09:16:40;39.50;31.50
3842;DHT22;1936;47.074;15.336;2023-06-26T09:18:45;39.80;28.60
3842;DHT22;1936;47.074;15.336;2023-06-26T09:20:49;40.20;29.20
3842;DHT22;1936;47.074;15.336;2023-06-26T09:22:53;40.00;27.70
3842;DHT22;1936;47.074;15.336;2023-06-26T09:24:57;39.00;27.30
3842;DHT22;1936;47.074;15.336;2023-06-26T09:27:02;39.40;28.30
3842;DHT22;1936;47.074;15.336;2023-06-26T09:29:07;39.60;27.60
3842;DHT22;1936;47.074;15.336;2023-06-26T09:31:11;38.90;31.10
3842;DHT22;1936;47.074;15.336;2023-06-26T09:33:34;39.50;29.70
3842;DHT22;1936;47.074;15.336;2023-06-26T09:35:39;39.90;27.40
3842;DHT22;1936;47.074;15.336;2023-06-26T09:37:43;38.30;27.60
3842;DHT22;1936;47.074;15.336;2023-06-26T09:39:46;38.90;27.70
3842;DHT22;1936;47.074;15.336;2023-06-26T09:41:50;39.40;29.70
3842;DHT22;1936;47.074;15.336;2023-06-26T09:43:58;40.00;29.20
3842;DHT22;1936;47.074;15.336;2023-06-26T09:46:04;39.60;28.10
3842;DHT22;1936;47.074;15.336;2023-06-26T09:48:08;39.50;27.70
3842;DHT22;1936;47.074;15.336;2023-06-26T09:50:21;39.00;30.00
3842;DHT22;1936;47.074;15.336;2023-06-26T09:52:26;39.60;29.40
3842;DHT22;1936;47.074;15.336;2023-06-26T09:54:30;40.30;26.50
3842;DHT22;1936;47.074;15.336;2023-06-26T09:56:33;39.70;30.20
3842;DHT22;1936;47.074;15.336;2023-06-26T09:58:37;40.30;29.60
3842;DHT22;1936;47.074;15.336;2023-06-26T10:00:43;40.20;28.90
3842;DHT22;1936;47.074;15.336;2023-06-26T10:02:46;39.40;25.50
3842;DHT22;1936;47.074;15.336;2023-06-26T10:04:50;37.80;26.30
3842;DHT22;1936;47.074;15.336;2023-06-26T10:06:56;37.50;28.60
3842;DHT22;1936;47.074;15.336;2023-06-26T10:09:01;37.70;31.90
3842;DHT22;1936;47.074;15.336;2023-06-26T10:11:07;38.30;26.80
3842;DHT22;1936;47.074;15.336;2023-06-26T10:13:15;38.70;27.20
3842;DHT22;1936;47.074;15.336;2023-06-26T10:15:20;38.90;28.50
3842;DHT22;1936;47.074;15.336;2023-06-26T10:17:28;37.80;27.90
3842;DHT22;1936;47.074;15.336;2023-06-26T10:19:33;38.70;28.50
3842;DHT22;1936;47.074;15.336;2023-06-26T10:21:38;39.10;29.80
3842;DHT22;1936;47.074;15.336;2023-06-26T10:23:44;39.20;29.10
3842;DHT22;1936;47.074;15.336;2023-06-26T10:25:48;38.00;27.10
3842;DHT22;1936;47.074;15.336;2023-06-26T10:27:56;38.80;32.10
3842;DHT22;1936;47.074;15.336;2023-06-26T10:30:05;38.90;30.90
3842;DHT22;1936;47.074;15.336;2023-06-26T10:32:13;39.60;29.30
3842;DHT22;1936;47.074;15.336;2023-06-26T10:34:18;39.20;28.90
3842;DHT22;1936;47.074;15.336;2023-06-26T10:36:27;38.40;30.70
3842;DHT22;1936;47.074;15.336;2023-06-26T10:38:49;36.80;30.30
3842;DHT22;1936;47.074;15.336;2023-06-26T10:40:53;36.30;35.50
3842;DHT22;1936;47.074;15.336;2023-06-26T10:43:06;35.40;34.30
3842;DHT22;1936;47.074;15.336;2023-06-26T10:45:11;35.30;36.90
3842;DHT22;1936;47.074;15.336;2023-06-26T10:47:29;35.70;34.60
3842;DHT22;1936;47.074;15.336;2023-06-26T10:49:36;35.30;34.60
3842;DHT22;1936;47.074;15.336;2023-06-26T10:51:46;35.30;38.40
3842;DHT22;1936;47.074;15.336;2023-06-26T10:53:53;35.00;36.20
3842;DHT22;1936;47.074;15.336;2023-06-26T10:55:59;33.80;39.40
3842;DHT22;1936;47.074;15.336;2023-06-26T10:58:27;33.90;40.20
3842;DHT22;1936;47.074;15.336;2023-06-26T11:00:30;34.90;40.40
3842;DHT22;1936;47.074;15.336;2023-06-26T11:02:47;35.00;35.80
3842;DHT22;1936;47.074;15.336;2023-06-26T11:04:52;34.90;36.50
3842;DHT22;1936;47.074;15.336;2023-06-26T11:07:14;34.50;34.40
3842;DHT22;1936;47.074;15.336;2023-06-26T11:09:24;34.00;37.90
3842;DHT22;1936;47.074;15.336;2023-06-26T11:11:57;34.30;37.20
3842;DHT22;1936;47.074;15.336;2023-06-26T11:14:11;34.80;39.70
3842;DHT22;1936;47.074;15.336;2023-06-26T11:16:15;35.00;38.50
3842;DHT22;1936;47.074;15.336;2023-06-26T11:18:19;35.40;35.60
3842;DHT22;1936;47.074;15.336;2023-06-26T11:20:25;34.80;33.80
3842;DHT22;1936;47.074;15.336;2023-06-26T11:22:28;35.60;35.10
3842;DHT22;1936;47.074;15.336;2023-06-26T11:24:32;36.20;35.30
3842;DHT22;1936;47.074;15.336;2023-06-26T11:26:40;36.10;34.90
3842;DHT22;1936;47.074;15.336;2023-06-26T11:28:51;35.70;36.30
3842;DHT22;1936;47.074;15.336;2023-06-26T11:30:56;35.20;35.70
3842;DHT22;1936;47.074;15.336;2023-06-26T11:33:04;34.80;35.50
3842;DHT22;1936;47.074;15.336;2023-06-26T11:35:08;34.90;35.70
3842;DHT22;1936;47.074;15.336;2023-06-26T11:37:16;34.80;34.00
3842;DHT22;1936;47.074;15.336;2023-06-26T11:39:20;34.90;35.70
3842;DHT22;1936;47.074;15.336;2023-06-26T11:41:24;34.90;36.10
3842;DHT22;1936;47.074;15.336;2023-06-26T11:43:27;34.00;36.30
3842;DHT22;1936;47.074;15.336;2023-06-26T11:45:31;33.70;39.60
3842;DHT22;1936;47.074;15.336;2023-06-26T11:47:35;33.70;37.70
3842;DHT22;1936;47.074;15.336;2023-06-26T11:49:45;34.00;41.40
3842;DHT22;1936;47.074;15.336;2023-06-26T11:51:49;33.90;37.60
3842;DHT22;1936;47.074;15.336;2023-06-26T11:53:54;33.30;39.60
3842;DHT22;1936;47.074;15.336;2023-06-26T11:55:58;33.30;38.50
3842;DHT22;1936;47.074;15.336;2023-06-26T11:58:01;33.60;39.80
3842;DHT22;1936;47.074;15.336;2023-06-26T12:00:12;33.60;40.80
3842;DHT22;1936;47.074;15.336;2023-06-26T12:02:17;33.80;38.00
3842;DHT22;1936;47.074;15.336;2023-06-26T12:04:21;33.70;39.90
3842;DHT22;1936;47.074;15.336;2023-06-26T12:06:24;33.50;36.60
3842;DHT22;1936;47.074;15.336;2023-06-26T12:08:28;33.60;35.40
3842;DHT22;1936;47.074;15.336;2023-06-26T12:10:37;33.60;36.90
3842;DHT22;1936;47.074;15.336;2023-06-26T12:12:41;33.50;38.70
3842;DHT22;1936;47.074;15.336;2023-06-26T12:14:45;34.00;38.90
3842;DHT22;1936;47.074;15.336;2023-06-26T12:16:49;33.90;37.50
3842;DHT22;1936;47.074;15.336;2023-06-26T12:18:58;33.80;38.60
3842;DHT22;1936;47.074;15.336;2023-06-26T12:21:02;33.80;36.50
3842;DHT22;1936;47.074;15.336;2023-06-26T12:23:11;33.40;38.60
3842;DHT22;1936;47.074;15.336;2023-06-26T12:25:15;33.30;40.50
3842;DHT22;1936;47.074;15.336;2023-06-26T12:27:22;34.10;46.40
3842;DHT22;1936;47.074;15.336;2023-06-26T12:29:31;34.40;38.80
3842;DHT22;1936;47.074;15.336;2023-06-26T12:31:36;34.10;34.80
3842;DHT22;1936;47.074;15.336;2023-06-26T12:33:43;34.20;38.80
3842;DHT22;1936;47.074;15.336;2023-06-26T12:35:46;34.30;35.20
3842;DHT22;1936;47.074;15.336;2023-06-26T12:37:50;34.20;42.10
3842;DHT22;1936;47.074;15.336;2023-06-26T12:39:55;33.70;37.30
3842;DHT22;1936;47.074;15.336;2023-06-26T12:42:00;33.70;39.90
3842;DHT22;1936;47.074;15.336;2023-06-26T12:44:18;33.70;41.00
3842;DHT22;1936;47.074;15.336;2023-06-26T12:46:33;33.10;40.40
3842;DHT22;1936;47.074;15.336;2023-06-26T12:48:38;32.60;38.60
3842;DHT22;1936;47.074;15.336;2023-06-26T12:50:45;33.00;42.30
3842;DHT22;1936;47.074;15.336;2023-06-26T12:52:49;33.00;43.20
3842;DHT22;1936;47.074;15.336;2023-06-26T12:54:55;33.00;42.90
3842;DHT22;1936;47.074;15.336;2023-06-26T12:56:59;33.50;43.50
3842;DHT22;1936;47.074;15.336;2023-06-26T12:59:03;33.60;40.30
3842;DHT22;1936;47.074;15.336;2023-06-26T13:01:07;33.90;38.30
3842;DHT22;1936;47.074;15.336;2023-06-26T13:03:15;34.20;42.70
3842;DHT22;1936;47.074;15.336;2023-06-26T13:05:19;34.00;39.00
3842;DHT22;1936;47.074;15.336;2023-06-26T13:07:23;34.00;39.00
3842;DHT22;1936;47.074;15.336;2023-06-26T13:09:33;34.20;41.50
3842;DHT22;1936;47.074;15.336;2023-06-26T13:11:37;33.70;41.40
3842;DHT22;1936;47.074;15.336;2023-06-26T13:13:40;33.50;38.20
3842;DHT22;1936;47.074;15.336;2023-06-26T13:15:46;33.30;37.80
3842;DHT22;1936;47.074;15.336;2023-06-26T13:17:51;33.60;42.40
3842;DHT22;1936;47.074;15.336;2023-06-26T13:19:54;33.50;40.00
3842;DHT22;1936;47.074;15.336;2023-06-26T13:21:57;33.50;40.50